createdAt,value
2022-08-10T00:00:51.784Z,73.80
2022-08-10T00:01:56.102Z,73.90
2022-08-10T00:03:00.872Z,74.00
2022-08-10T00:04:05.032Z,73.90
2022-08-10T00:05:09.519Z,74.00
2022-08-10T00:06:13.652Z,73.90
2022-08-10T00:07:16.493Z,74.00
2022-08-10T00:08:22.741Z,74.10
2022-08-10T00:09:26.945Z,74.10
2022-08-10T00:10:30.667Z,74.30
2022-08-10T00:11:34.953Z,74.30
2022-08-10T00:12:53.593Z,74.50
2022-08-10T00:14:01.614Z,74.50
2022-08-10T00:15:09.344Z,74.60
2022-08-10T00:16:13.515Z,74.60
2022-08-10T00:17:16.377Z,74.60
2022-08-10T00:18:35.106Z,74.60
2022-08-10T00:20:04.022Z,74.50
2022-08-10T00:21:06.791Z,74.50
2022-08-10T00:22:11.476Z,74.70
2022-08-10T00:23:20.746Z,74.80
2022-08-10T00:24:26.584Z,74.80
2022-08-10T00:25:30.564Z,74.90
2022-08-10T00:28:01.203Z,74.80
2022-08-10T00:28:03.655Z,74.90
2022-08-10T00:29:06.817Z,74.70
2022-08-10T00:30:16.069Z,74.60
2022-08-10T00:31:18.647Z,74.50
2022-08-10T00:32:22.659Z,74.70
2022-08-10T00:33:25.487Z,74.80
2022-08-10T00:34:29.556Z,74.70
2022-08-10T00:35:34.771Z,74.70
2022-08-10T00:36:38.706Z,74.70
2022-08-10T00:37:41.522Z,74.80
2022-08-10T00:38:45.190Z,74.90
2022-08-10T00:39:48.083Z,75.10
2022-08-10T00:40:51.867Z,75.20
2022-08-10T00:42:01.733Z,75.10
2022-08-10T00:43:11.835Z,75.30
2022-08-10T00:44:14.547Z,75.30
2022-08-10T00:45:19.961Z,75.40
2022-08-10T00:46:22.746Z,75.40
2022-08-10T00:47:37.298Z,75.40
2022-08-10T00:48:40.335Z,75.40
2022-08-10T00:49:44.638Z,75.40
2022-08-10T00:50:48.683Z,75.40
2022-08-10T00:51:52.460Z,75.70
2022-08-10T00:52:55.637Z,75.60
2022-08-10T00:53:59.310Z,75.70
2022-08-10T00:55:03.467Z,75.80
2022-08-10T00:57:12.182Z,76.00
2022-08-10T00:57:32.825Z,75.90
2022-08-10T00:58:37.740Z,75.80
2022-08-10T00:59:59.232Z,76.10
2022-08-10T01:01:05.522Z,75.90
2022-08-10T01:02:11.703Z,75.70
2022-08-10T01:03:18.464Z,75.60
2022-08-10T01:06:15.257Z,75.60
2022-08-10T01:07:35.055Z,75.60
2022-08-10T01:08:48.863Z,75.60
2022-08-10T01:10:05.277Z,75.90
2022-08-10T01:12:39.549Z,75.80
2022-08-10T01:12:51.879Z,75.90
2022-08-10T01:14:04.619Z,76.00
2022-08-10T01:15:18.140Z,76.10
2022-08-10T01:16:32.840Z,76.10
2022-08-10T01:17:49.730Z,76.50
2022-08-10T01:19:00.894Z,76.30
2022-08-10T01:20:30.151Z,76.40
2022-08-10T01:22:21.858Z,76.30
2022-08-10T01:24:13.055Z,76.20
2022-08-10T01:26:10.459Z,76.40
2022-08-10T01:27:28.146Z,76.10
2022-08-10T01:28:46.662Z,76.10
2022-08-10T01:30:02.570Z,76.50
2022-08-10T01:31:09.408Z,76.50
2022-08-10T01:32:17.115Z,76.40
2022-08-10T01:33:31.875Z,76.50
2022-08-10T01:34:56.548Z,76.60
2022-08-10T01:36:09.839Z,76.70
2022-08-10T01:37:18.500Z,76.80
2022-08-10T01:38:26.900Z,77.00
2022-08-10T01:39:38.945Z,77.20
2022-08-10T01:40:51.351Z,77.20
2022-08-10T01:41:58.337Z,77.40
2022-08-10T01:43:08.911Z,77.30
2022-08-10T01:44:19.988Z,77.40
2022-08-10T01:45:27.634Z,77.80
2022-08-10T01:46:35.122Z,77.70
2022-08-10T01:48:00.926Z,77.80
2022-08-10T01:49:10.676Z,78.00
2022-08-10T01:50:22.996Z,77.90
2022-08-10T01:51:32.832Z,78.10
2022-08-10T01:52:43.149Z,78.50
2022-08-10T01:53:53.121Z,78.30
2022-08-10T01:54:57.482Z,78.30
2022-08-10T01:56:02.813Z,78.30
2022-08-10T01:57:11.650Z,78.30
2022-08-10T01:58:19.047Z,78.50
2022-08-10T01:59:30.322Z,78.30
2022-08-10T02:00:40.430Z,78.20
2022-08-10T02:01:48.188Z,78.10
2022-08-10T02:02:54.015Z,78.20
2022-08-10T02:04:06.319Z,78.50
2022-08-10T02:05:16.002Z,78.50
2022-08-10T02:06:22.344Z,78.50
2022-08-10T02:07:29.506Z,78.50
2022-08-10T02:08:35.525Z,78.40
2022-08-10T02:09:42.816Z,78.60
2022-08-10T02:10:49.618Z,78.70
2022-08-10T02:12:05.223Z,78.60
2022-08-10T02:13:11.841Z,78.50
2022-08-10T02:14:15.076Z,78.80
2022-08-10T02:15:21.498Z,78.80
2022-08-10T02:16:27.049Z,79.10
2022-08-10T02:17:59.125Z,79.10
2022-08-10T02:19:01.658Z,79.00
2022-08-10T02:20:10.349Z,78.80
2022-08-10T02:21:15.493Z,78.90
2022-08-10T02:22:45.927Z,78.90
2022-08-10T02:23:46.424Z,79.20
2022-08-10T02:25:05.364Z,79.20
2022-08-10T02:26:11.242Z,79.30
2022-08-10T02:27:15.417Z,79.30
2022-08-10T02:28:30.494Z,79.50
2022-08-10T02:29:36.542Z,79.60
2022-08-10T02:30:41.406Z,79.60
2022-08-10T02:31:49.664Z,79.60
2022-08-10T02:32:56.114Z,79.40
2022-08-10T02:33:59.834Z,79.40
2022-08-10T02:35:07.439Z,79.40
2022-08-10T02:36:11.999Z,79.50
2022-08-10T02:37:18.087Z,79.50
2022-08-10T02:38:59.831Z,79.50
2022-08-10T02:39:51.826Z,79.40
2022-08-10T02:45:15.102Z,79.60
2022-08-10T02:45:18.412Z,79.60
2022-08-10T02:45:22.202Z,79.70
2022-08-10T02:45:51.110Z,79.60
2022-08-10T02:47:07.327Z,79.90
2022-08-10T02:48:19.091Z,79.70
2022-08-10T02:49:30.647Z,79.80
2022-08-10T02:50:40.167Z,80.00
2022-08-10T02:52:08.149Z,80.00
2022-08-10T02:53:55.975Z,80.10
2022-08-10T02:54:54.795Z,80.20
2022-08-10T02:56:05.184Z,80.20
2022-08-10T02:57:17.690Z,80.10
2022-08-10T02:58:26.685Z,80.20
2022-08-10T02:59:39.868Z,80.30
2022-08-10T03:00:47.833Z,80.30
2022-08-10T03:01:55.783Z,80.50
2022-08-10T03:03:02.562Z,80.60
2022-08-10T03:04:13.152Z,80.70
2022-08-10T03:05:19.240Z,80.80
2022-08-10T03:06:32.266Z,80.80
2022-08-10T03:07:42.893Z,80.90
2022-08-10T03:09:08.864Z,80.90
2022-08-10T03:10:18.902Z,81.30
2022-08-10T03:12:35.733Z,81.30
2022-08-10T03:12:57.714Z,81.30
2022-08-10T03:14:03.657Z,81.30
2022-08-10T03:15:09.849Z,81.30
2022-08-10T03:16:21.047Z,81.70
2022-08-10T03:17:25.510Z,81.50
2022-08-10T03:18:34.411Z,81.50
2022-08-10T03:20:34.806Z,81.30
2022-08-10T03:21:06.826Z,81.50
2022-08-10T03:22:17.329Z,81.60
2022-08-10T03:23:25.329Z,81.50
2022-08-10T03:24:32.661Z,81.60
2022-08-10T03:25:38.273Z,81.80
2022-08-10T03:26:43.405Z,81.90
2022-08-10T03:27:47.802Z,82.40
2022-08-10T03:28:53.697Z,82.70
2022-08-10T03:30:32.404Z,82.80
2022-08-10T03:31:24.223Z,83.20
2022-08-10T03:32:27.856Z,82.90
2022-08-10T03:33:36.893Z,82.80
2022-08-10T03:34:41.063Z,82.80
2022-08-10T03:36:42.778Z,83.00
2022-08-10T03:37:11.627Z,82.80
2022-08-10T03:38:16.042Z,82.80
2022-08-10T03:39:19.813Z,82.90
2022-08-10T03:40:23.750Z,82.90
2022-08-10T03:41:55.714Z,83.20
2022-08-10T03:43:02.088Z,83.40
2022-08-10T03:44:08.426Z,83.20
2022-08-10T03:45:12.075Z,83.30
2022-08-10T03:46:19.971Z,83.20
2022-08-10T03:47:25.202Z,83.10
2022-08-10T03:48:44.725Z,83.30
2022-08-10T03:49:55.144Z,83.40
2022-08-10T03:50:58.894Z,83.30
2022-08-10T03:52:08.481Z,83.20
2022-08-10T03:53:25.683Z,83.20
2022-08-10T03:54:36.624Z,83.10
2022-08-10T03:56:29.362Z,83.00
2022-08-10T03:57:04.209Z,83.20
2022-08-10T03:58:07.057Z,83.30
2022-08-10T03:59:18.018Z,83.50
2022-08-10T04:00:28.798Z,83.40
2022-08-10T04:02:43.348Z,83.60
2022-08-10T04:03:02.829Z,83.50
2022-08-10T04:04:11.583Z,83.40
2022-08-10T04:05:19.942Z,83.70
2022-08-10T04:06:23.094Z,83.50
2022-08-10T04:07:27.890Z,83.40
2022-08-10T04:08:32.001Z,83.40
2022-08-10T04:09:55.533Z,83.40
2022-08-10T04:10:59.669Z,83.50
2022-08-10T04:12:04.337Z,83.30
2022-08-10T04:13:07.270Z,83.20
2022-08-10T04:14:44.950Z,83.40
2022-08-10T04:15:35.452Z,83.50
2022-08-10T04:16:38.437Z,83.70
2022-08-10T04:18:04.262Z,83.70
2022-08-10T04:19:08.276Z,83.80
2022-08-10T04:20:20.719Z,83.90
2022-08-10T04:21:31.220Z,83.80
2022-08-10T04:22:37.262Z,83.70
2022-08-10T04:23:52.579Z,83.80
2022-08-10T04:25:02.871Z,83.70
2022-08-10T04:26:07.399Z,83.70
2022-08-10T04:27:10.527Z,84.10
2022-08-10T04:28:14.673Z,83.90
2022-08-10T04:29:17.997Z,83.70
2022-08-10T04:30:22.644Z,83.80
2022-08-10T04:31:26.978Z,83.90
2022-08-10T04:32:32.389Z,84.20
2022-08-10T04:33:37.621Z,84.10
2022-08-10T04:34:45.624Z,84.00
2022-08-10T04:35:52.066Z,84.00
2022-08-10T04:37:05.447Z,84.00
2022-08-10T04:38:14.087Z,83.90
2022-08-10T04:39:17.483Z,84.20
2022-08-10T04:40:25.269Z,84.30
2022-08-10T04:41:35.608Z,84.70
2022-08-10T04:42:38.562Z,84.50
2022-08-10T04:43:42.372Z,84.40
2022-08-10T04:44:45.342Z,84.70
2022-08-10T04:45:51.900Z,84.80
2022-08-10T04:46:57.985Z,84.80
2022-08-10T04:48:03.288Z,84.90
2022-08-10T04:49:06.257Z,84.80
2022-08-10T04:50:30.149Z,84.90
2022-08-10T04:51:34.763Z,85.00
2022-08-10T04:52:38.974Z,84.80
2022-08-10T04:54:04.382Z,84.90
2022-08-10T04:55:09.924Z,85.20
2022-08-10T04:56:12.709Z,85.40
2022-08-10T04:57:16.251Z,85.40
2022-08-10T04:58:18.948Z,85.40
2022-08-10T04:59:23.244Z,85.50
2022-08-10T05:00:26.071Z,85.20
2022-08-10T05:02:21.263Z,85.00
2022-08-10T05:02:56.934Z,85.00
2022-08-10T05:04:37.603Z,84.80
2022-08-10T05:05:23.802Z,84.50
2022-08-10T05:06:26.505Z,84.20
2022-08-10T05:07:31.871Z,84.20
2022-08-10T05:08:46.679Z,84.00
2022-08-10T05:10:01.660Z,83.70
2022-08-10T05:11:12.076Z,83.30
2022-08-10T05:12:27.833Z,82.90
2022-08-10T05:13:32.288Z,82.50
2022-08-10T05:14:35.752Z,82.20
2022-08-10T05:15:52.176Z,81.80
2022-08-10T05:16:55.190Z,81.40
2022-08-10T05:18:08.199Z,81.00
2022-08-10T05:19:14.181Z,80.60
2022-08-10T05:20:18.357Z,80.20
2022-08-10T05:22:02.263Z,79.80
2022-08-10T05:22:47.994Z,79.40
2022-08-10T05:23:51.376Z,78.90
2022-08-10T05:24:55.958Z,78.60
2022-08-10T05:26:00.285Z,78.10
2022-08-10T05:27:09.954Z,77.80
2022-08-10T05:28:14.309Z,77.40
2022-08-10T05:29:17.217Z,77.10
2022-08-10T05:30:24.262Z,76.60
2022-08-10T05:31:27.575Z,76.30
2022-08-10T05:32:57.245Z,76.00
2022-08-10T05:33:59.179Z,75.70
2022-08-10T05:35:06.228Z,75.20
2022-08-10T05:36:11.406Z,74.90
2022-08-10T05:38:12.291Z,74.70
2022-08-10T05:38:41.004Z,74.30
2022-08-10T05:39:44.912Z,74.00
2022-08-10T05:40:50.609Z,73.80
2022-08-10T05:41:55.484Z,73.60
2022-08-10T05:43:05.349Z,73.30
2022-08-10T05:44:08.409Z,73.20
2022-08-10T05:45:21.536Z,73.00
2022-08-10T05:46:24.404Z,72.80
2022-08-10T05:47:29.152Z,72.50
2022-08-10T05:48:59.182Z,72.30
2022-08-10T05:50:04.549Z,72.10
2022-08-10T05:51:10.327Z,71.70
2022-08-10T05:52:14.421Z,71.50
2022-08-10T05:54:02.331Z,71.40
2022-08-10T05:54:42.969Z,71.10
2022-08-10T05:55:46.094Z,71.00
2022-08-10T05:56:55.063Z,70.40
2022-08-10T05:58:01.256Z,70.00
2022-08-10T05:59:05.824Z,69.90
2022-08-10T06:00:37.042Z,69.80
2022-08-10T06:01:41.325Z,69.60
2022-08-10T06:02:53.894Z,69.00
2022-08-10T06:03:59.213Z,68.70
2022-08-10T06:05:12.014Z,68.20
2022-08-10T06:06:21.840Z,68.20
2022-08-10T06:07:30.200Z,68.00
2022-08-10T06:08:37.051Z,67.40
2022-08-10T06:09:59.023Z,67.30
2022-08-10T06:12:28.065Z,66.80
2022-08-10T06:12:33.457Z,66.60
2022-08-10T06:14:13.634Z,66.20
2022-08-10T06:15:21.667Z,66.20
2022-08-10T06:16:44.789Z,65.60
2022-08-10T06:18:01.630Z,65.50
2022-08-10T06:19:07.609Z,65.50
2022-08-10T06:20:12.969Z,65.20
2022-08-10T06:21:19.762Z,64.80
2022-08-10T06:22:23.748Z,65.00
2022-08-10T06:23:29.711Z,64.80
2022-08-10T06:24:46.477Z,64.60
2022-08-10T06:26:10.293Z,64.40
2022-08-10T06:27:17.216Z,64.50
2022-08-10T06:28:29.803Z,64.30
2022-08-10T06:29:36.683Z,64.30
2022-08-10T06:30:42.522Z,63.80
2022-08-10T06:31:51.660Z,63.60
2022-08-10T06:32:58.357Z,63.20
2022-08-10T06:34:06.847Z,62.40
2022-08-10T06:35:11.773Z,62.50
2022-08-10T06:36:18.545Z,62.00
2022-08-10T06:37:32.324Z,62.10
2022-08-10T06:38:39.979Z,61.90
2022-08-10T06:39:45.733Z,61.60
2022-08-10T06:40:51.602Z,61.70
2022-08-10T06:42:16.872Z,61.90
2022-08-10T06:43:24.794Z,61.90
2022-08-10T06:44:38.782Z,61.70
2022-08-10T06:46:07.395Z,61.40
2022-08-10T06:47:15.706Z,61.10
2022-08-10T06:48:32.605Z,61.00
2022-08-10T06:49:37.967Z,61.10
2022-08-10T06:50:58.580Z,61.00
2022-08-10T06:52:05.642Z,60.60
2022-08-10T06:53:15.731Z,60.50
2022-08-10T06:54:23.005Z,60.50
2022-08-10T06:55:40.177Z,60.60
2022-08-10T06:57:17.410Z,60.60
2022-08-10T06:58:26.875Z,60.20
2022-08-10T06:59:38.823Z,60.10
2022-08-10T07:00:45.241Z,59.40
2022-08-10T07:01:53.312Z,59.80
2022-08-10T07:03:02.745Z,59.60
2022-08-10T07:04:13.894Z,59.20
2022-08-10T07:05:22.418Z,59.30
2022-08-10T07:06:26.990Z,59.40
2022-08-10T07:07:36.244Z,59.00
2022-08-10T07:08:39.928Z,58.50
2022-08-10T07:09:48.289Z,58.30
2022-08-10T07:10:56.430Z,58.40
2022-08-10T07:12:07.904Z,58.20
2022-08-10T07:13:12.885Z,57.70
2022-08-10T07:14:21.646Z,57.00
2022-08-10T07:15:59.766Z,56.80
2022-08-10T07:16:54.620Z,56.80
2022-08-10T07:18:00.680Z,56.50
2022-08-10T07:19:04.686Z,56.20
2022-08-10T07:20:11.466Z,56.20
2022-08-10T07:21:15.947Z,55.90
2022-08-10T07:23:01.543Z,55.60
2022-08-10T07:23:58.775Z,55.10
2022-08-10T07:25:07.177Z,54.40
2022-08-10T07:26:13.549Z,54.60
2022-08-10T07:27:20.386Z,54.50
2022-08-10T07:28:24.262Z,53.70
2022-08-10T07:29:54.042Z,53.70
2022-08-10T07:30:56.947Z,53.00
2022-08-10T07:32:02.277Z,53.20
2022-08-10T07:33:09.142Z,53.10
2022-08-10T07:34:29.847Z,53.00
2022-08-10T07:35:43.121Z,52.50
2022-08-10T07:36:49.700Z,52.60
2022-08-10T07:37:54.497Z,52.60
2022-08-10T07:39:01.115Z,52.60
2022-08-10T07:40:06.722Z,52.80
2022-08-10T07:41:11.692Z,52.00
2022-08-10T07:42:23.746Z,52.10
2022-08-10T07:43:32.883Z,51.30
2022-08-10T07:44:39.932Z,51.30
2022-08-10T07:45:43.772Z,50.70
2022-08-10T07:46:55.261Z,50.80
2022-08-10T07:48:07.930Z,50.10
2022-08-10T07:49:19.432Z,50.10
2022-08-10T07:50:26.904Z,49.60
2022-08-10T07:51:33.455Z,49.10
2022-08-10T07:52:38.006Z,49.00
2022-08-10T07:53:50.367Z,48.90
2022-08-10T07:54:54.221Z,49.10
2022-08-10T07:56:13.393Z,48.50
2022-08-10T07:57:32.484Z,48.40
2022-08-10T07:58:46.131Z,47.90
2022-08-10T07:59:58.922Z,47.60
2022-08-10T08:01:02.379Z,48.10
2022-08-10T08:02:14.490Z,47.50
2022-08-10T08:03:26.857Z,48.00
2022-08-10T08:04:30.383Z,47.40
2022-08-10T08:05:59.116Z,47.40
2022-08-10T08:08:05.242Z,45.70
2022-08-10T08:09:09.207Z,46.30
2022-08-10T08:10:15.071Z,45.70
2022-08-10T08:11:25.494Z,45.60
2022-08-10T08:12:34.892Z,45.30
2022-08-10T08:13:40.468Z,45.70
2022-08-10T08:14:45.303Z,45.90
2022-08-10T08:16:17.221Z,45.60
2022-08-10T08:17:18.377Z,45.30
2022-08-10T08:18:25.477Z,44.80
2022-08-10T08:19:37.103Z,44.60
2022-08-10T08:20:45.653Z,44.50
2022-08-10T08:24:06.196Z,44.60
2022-08-10T08:24:16.074Z,44.30
2022-08-10T08:24:44.336Z,43.50
2022-08-10T08:25:48.455Z,43.10
2022-08-10T08:26:53.698Z,42.70
2022-08-10T08:28:01.984Z,42.50
2022-08-10T08:29:07.187Z,42.30
2022-08-10T08:30:12.653Z,42.60
2022-08-10T08:31:19.237Z,42.30
2022-08-10T08:32:26.518Z,42.00
2022-08-10T08:33:41.916Z,41.80
2022-08-10T08:34:48.321Z,41.40
2022-08-10T08:35:52.687Z,40.90
2022-08-10T08:36:59.680Z,41.40
2022-08-10T08:38:31.462Z,41.20
2022-08-10T08:39:29.921Z,41.20
2022-08-10T08:40:37.958Z,40.70
2022-08-10T08:42:05.446Z,40.50
2022-08-10T08:43:31.620Z,40.00
2022-08-10T08:44:50.331Z,40.40
2022-08-10T08:46:28.936Z,40.50
2022-08-10T08:48:03.654Z,40.10
2022-08-10T08:50:09.075Z,39.30
2022-08-10T08:52:07.903Z,40.10
2022-08-10T08:53:12.811Z,39.60
2022-08-10T08:54:43.694Z,38.80
2022-08-10T08:56:05.370Z,38.10
2022-08-10T08:57:50.305Z,38.50
2022-08-10T08:59:07.267Z,39.20
2022-08-10T09:00:18.553Z,39.20
2022-08-10T09:01:48.160Z,38.50
2022-08-10T09:03:18.072Z,38.60
2022-08-10T09:04:43.658Z,38.50
2022-08-10T09:06:00.229Z,38.00
2022-08-10T09:08:01.043Z,38.50
2022-08-10T09:09:34.143Z,38.80
2022-08-10T09:10:50.667Z,37.90
2022-08-10T09:12:13.181Z,37.90
2022-08-10T09:13:27.222Z,37.80
2022-08-10T09:14:50.459Z,37.80
2022-08-10T09:16:08.878Z,37.70
2022-08-10T09:17:24.612Z,37.50
2022-08-10T09:18:49.600Z,37.10
2022-08-10T09:19:59.256Z,37.70
2022-08-10T09:21:14.749Z,37.30
2022-08-10T09:22:30.881Z,36.70
2022-08-10T09:24:05.108Z,36.60
2022-08-10T09:25:19.998Z,36.70
2022-08-10T09:26:30.022Z,36.30
2022-08-10T09:27:44.349Z,36.80
2022-08-10T09:29:12.266Z,35.70
2022-08-10T09:30:31.638Z,36.70
2022-08-10T09:33:05.382Z,35.80
2022-08-10T09:36:19.794Z,36.30
2022-08-10T09:36:23.687Z,36.80
2022-08-10T09:36:33.836Z,36.60
2022-08-10T09:38:02.459Z,37.30
2022-08-10T09:40:12.260Z,36.50
2022-08-10T09:41:01.268Z,36.80
2022-08-10T09:42:15.559Z,35.80
2022-08-10T09:43:32.487Z,36.10
2022-08-10T09:44:57.921Z,36.20
2022-08-10T09:46:27.494Z,35.70
2022-08-10T09:48:04.016Z,35.90
2022-08-10T09:49:25.038Z,34.90
2022-08-10T09:52:33.295Z,35.60
2022-08-10T09:53:57.646Z,35.40
2022-08-10T09:55:15.088Z,35.30
2022-08-10T09:56:30.748Z,35.00
2022-08-10T09:57:50.840Z,35.60
2022-08-10T09:59:27.210Z,35.50
2022-08-10T10:00:43.243Z,35.20
2022-08-10T10:02:03.522Z,35.10
2022-08-10T10:03:25.831Z,35.30
2022-08-10T10:04:53.048Z,35.10
2022-08-10T10:06:06.636Z,35.20
2022-08-10T10:07:15.490Z,35.00
2022-08-10T10:08:28.232Z,34.80
2022-08-10T10:09:40.269Z,34.50
2022-08-10T10:11:10.854Z,34.90
2022-08-10T10:12:26.946Z,35.00
2022-08-10T10:14:03.438Z,34.10
2022-08-10T10:15:25.079Z,34.50
2022-08-10T10:16:53.881Z,34.40
2022-08-10T10:18:18.020Z,34.10
2022-08-10T10:19:45.544Z,34.20
2022-08-10T10:21:03.154Z,33.00
2022-08-10T10:22:36.347Z,33.40
2022-08-10T10:24:21.411Z,32.90
2022-08-10T10:25:51.050Z,33.50
2022-08-10T10:27:01.283Z,33.50
2022-08-10T10:28:19.740Z,34.30
2022-08-10T10:29:57.342Z,33.40
2022-08-10T10:31:16.793Z,33.60
2022-08-10T10:32:36.634Z,33.30
2022-08-10T10:33:55.681Z,33.50
2022-08-10T10:35:10.754Z,32.20
2022-08-10T10:36:17.006Z,32.10
2022-08-10T10:38:01.614Z,32.40
2022-08-10T10:38:52.261Z,32.50
2022-08-10T10:39:56.175Z,33.00
2022-08-10T10:41:11.720Z,32.40
2022-08-10T10:42:46.617Z,32.50
2022-08-10T10:44:05.157Z,32.20
2022-08-10T10:45:20.794Z,33.00
2022-08-10T10:46:46.849Z,32.90
2022-08-10T10:48:09.197Z,33.30
2022-08-10T10:49:37.670Z,32.80
2022-08-10T10:50:56.649Z,33.40
2022-08-10T10:52:16.339Z,33.10
2022-08-10T10:53:27.409Z,33.60
2022-08-10T10:54:43.296Z,33.10
2022-08-10T10:56:15.132Z,33.20
2022-08-10T10:57:58.643Z,33.60
2022-08-10T10:59:54.257Z,33.40
2022-08-10T11:00:43.334Z,33.20
2022-08-10T11:01:58.618Z,33.80
2022-08-10T11:03:22.401Z,34.30
2022-08-10T11:04:35.552Z,33.90
2022-08-10T11:05:49.030Z,34.30
2022-08-10T11:07:13.139Z,34.10
2022-08-10T11:08:29.037Z,33.30
2022-08-10T11:10:04.967Z,33.80
2022-08-10T11:11:20.466Z,33.60
2022-08-10T11:12:46.878Z,33.70
2022-08-10T11:14:28.536Z,33.40
2022-08-10T11:15:49.699Z,32.60
2022-08-10T11:17:00.528Z,33.80
2022-08-10T11:18:14.013Z,33.90
2022-08-10T11:20:01.747Z,33.60
2022-08-10T11:21:06.657Z,33.50
2022-08-10T11:22:21.614Z,33.40
2022-08-10T11:23:36.733Z,33.90
2022-08-10T11:25:08.869Z,34.40
2022-08-10T11:27:01.819Z,34.20
2022-08-10T11:28:37.274Z,33.70
2022-08-10T11:29:55.344Z,33.70
2022-08-10T11:31:24.609Z,33.70
2022-08-10T11:33:02.521Z,33.80
2022-08-10T11:34:47.173Z,34.10
2022-08-10T11:35:45.940Z,33.80
2022-08-10T11:37:00.166Z,33.80
2022-08-10T11:38:32.267Z,34.20
2022-08-10T11:39:49.775Z,34.10
2022-08-10T11:42:09.498Z,34.20
2022-08-10T11:42:48.298Z,34.10
2022-08-10T11:44:03.601Z,33.70
2022-08-10T11:45:13.373Z,33.90
2022-08-10T11:46:28.804Z,33.80
2022-08-10T11:47:42.944Z,33.80
2022-08-10T11:48:57.003Z,33.80
2022-08-10T11:50:12.589Z,33.80
2022-08-10T11:51:24.130Z,34.20
2022-08-10T11:52:34.678Z,33.30
2022-08-10T11:53:52.569Z,33.50
2022-08-10T11:55:01.016Z,33.60
2022-08-10T11:56:11.189Z,33.90
2022-08-10T11:57:16.001Z,33.90
2022-08-10T11:58:40.729Z,33.60
2022-08-10T11:59:59.577Z,33.80
2022-08-10T12:01:06.812Z,33.90
2022-08-10T12:02:21.138Z,34.10
2022-08-10T12:03:26.026Z,33.80
2022-08-10T12:04:29.693Z,34.00
2022-08-10T12:05:53.779Z,33.70
2022-08-10T12:06:59.827Z,33.80
2022-08-10T12:10:01.877Z,34.10
2022-08-10T12:10:10.416Z,34.20
2022-08-10T12:10:55.485Z,34.50
2022-08-10T12:11:59.531Z,34.00
2022-08-10T12:13:11.480Z,34.20
2022-08-10T12:14:22.537Z,33.70
2022-08-10T12:15:34.691Z,34.10
2022-08-10T12:16:41.644Z,34.10
2022-08-10T12:17:53.631Z,33.60
2022-08-10T12:19:06.873Z,34.10
2022-08-10T12:20:16.197Z,34.50
2022-08-10T12:21:24.761Z,34.20
2022-08-10T12:22:34.343Z,34.50
2022-08-10T12:23:44.924Z,34.60
2022-08-10T12:24:55.612Z,34.10
2022-08-10T12:26:07.758Z,34.40
2022-08-10T12:27:16.769Z,34.20
2022-08-10T12:28:50.135Z,34.00
2022-08-10T12:30:03.359Z,34.30
2022-08-10T12:31:10.626Z,34.40
2022-08-10T12:32:25.470Z,34.70
2022-08-10T12:34:02.124Z,34.00
2022-08-10T12:35:22.069Z,33.90
2022-08-10T12:36:33.371Z,34.40
2022-08-10T12:37:51.002Z,34.50
2022-08-10T12:39:07.920Z,33.80
2022-08-10T12:40:36.374Z,33.90
2022-08-10T12:41:47.464Z,33.50
2022-08-10T12:44:05.682Z,34.10
2022-08-10T12:44:42.231Z,34.00
2022-08-10T12:46:04.371Z,34.00
2022-08-10T12:47:23.304Z,34.10
2022-08-10T12:48:35.847Z,34.00
2022-08-10T12:50:31.025Z,34.30
2022-08-10T12:51:22.142Z,34.20
2022-08-10T12:52:32.588Z,33.90
2022-08-10T12:53:47.934Z,34.10
2022-08-10T12:54:52.938Z,33.20
2022-08-10T12:56:01.682Z,33.60
2022-08-10T12:57:11.390Z,33.80
2022-08-10T12:58:57.187Z,33.80
2022-08-10T12:59:43.833Z,33.80
2022-08-10T13:01:13.153Z,32.90
2022-08-10T13:02:19.974Z,33.30
2022-08-10T13:04:23.281Z,33.00
2022-08-10T13:04:53.417Z,33.40
2022-08-10T13:06:02.605Z,33.20
2022-08-10T13:07:07.759Z,33.00
2022-08-10T13:08:30.102Z,33.10
2022-08-10T13:09:56.274Z,33.00
2022-08-10T13:11:26.263Z,32.60
2022-08-10T13:12:40.121Z,33.20
2022-08-10T13:13:46.305Z,32.90
2022-08-10T13:14:59.167Z,32.20
2022-08-10T13:16:03.247Z,32.70
2022-08-10T13:17:09.466Z,33.90
2022-08-10T13:18:18.852Z,34.80
2022-08-10T13:19:28.468Z,34.30
2022-08-10T13:20:54.165Z,34.60
2022-08-10T13:21:58.231Z,35.20
2022-08-10T13:23:07.004Z,35.30
2022-08-10T13:24:14.268Z,35.30
2022-08-10T13:25:26.006Z,35.60
2022-08-10T13:26:37.021Z,35.60
2022-08-10T13:28:00.691Z,35.80
2022-08-10T13:29:16.275Z,36.10
2022-08-10T13:30:37.328Z,36.10
2022-08-10T13:32:09.240Z,35.60
2022-08-10T13:33:13.936Z,35.50
2022-08-10T13:34:42.949Z,35.70
2022-08-10T13:35:47.648Z,35.90
2022-08-10T13:37:02.450Z,36.60
2022-08-10T13:38:07.293Z,36.80
2022-08-10T13:39:13.787Z,36.80
2022-08-10T13:40:20.689Z,36.90
2022-08-10T13:41:29.006Z,37.00
2022-08-10T13:42:38.485Z,37.00
2022-08-10T13:43:55.609Z,36.90
2022-08-10T13:45:00.050Z,37.40
2022-08-10T13:46:04.909Z,37.20
2022-08-10T13:47:13.588Z,37.20
2022-08-10T13:48:21.695Z,37.20
2022-08-10T13:49:26.062Z,37.20
2022-08-10T13:50:32.037Z,36.70
2022-08-10T13:51:54.205Z,36.90
2022-08-10T13:53:02.380Z,37.00
2022-08-10T13:54:08.800Z,37.30
2022-08-10T13:55:15.445Z,37.50
2022-08-10T13:56:19.124Z,37.50
2022-08-10T13:57:32.661Z,37.80
2022-08-10T13:58:41.167Z,37.70
2022-08-10T14:00:34.633Z,37.90
2022-08-10T14:01:22.573Z,38.30
2022-08-10T14:02:32.565Z,38.40
2022-08-10T14:03:39.578Z,38.50
2022-08-10T14:04:45.895Z,38.60
2022-08-10T14:05:53.154Z,38.10
2022-08-10T14:07:00.503Z,38.40
2022-08-10T14:08:12.308Z,38.80
2022-08-10T14:09:17.848Z,39.00
2022-08-10T14:11:08.508Z,39.30
2022-08-10T14:11:51.158Z,39.20
2022-08-10T14:12:57.120Z,39.30
2022-08-10T14:14:07.859Z,39.30
2022-08-10T14:15:16.268Z,39.50
2022-08-10T14:16:20.853Z,39.30
2022-08-10T14:17:26.722Z,39.30
2022-08-10T14:18:35.851Z,38.80
2022-08-10T14:19:43.461Z,39.20
2022-08-10T14:20:48.430Z,39.10
2022-08-10T14:21:52.551Z,39.40
2022-08-10T14:23:02.344Z,39.90
2022-08-10T14:24:22.631Z,40.10
2022-08-10T14:25:26.748Z,40.40
2022-08-10T14:26:32.696Z,40.80
2022-08-10T14:28:01.663Z,40.90
2022-08-10T14:29:09.399Z,41.10
2022-08-10T14:30:20.149Z,41.10
2022-08-10T14:31:30.229Z,41.30
2022-08-10T14:32:42.039Z,41.30
2022-08-10T14:33:51.067Z,41.40
2022-08-10T14:36:14.786Z,41.40
2022-08-10T14:36:32.235Z,41.60
2022-08-10T14:37:38.598Z,41.60
2022-08-10T14:38:46.072Z,41.80
2022-08-10T14:39:56.672Z,41.90
2022-08-10T14:41:03.856Z,42.10
2022-08-10T14:42:25.723Z,42.30
2022-08-10T14:43:35.798Z,42.30
2022-08-10T14:44:50.874Z,42.70
2022-08-10T14:46:01.699Z,42.80
2022-08-10T14:47:53.929Z,43.00
2022-08-10T14:48:34.992Z,43.10
2022-08-10T14:49:58.189Z,43.20
2022-08-10T14:51:04.108Z,43.50
2022-08-10T14:52:11.469Z,43.70
2022-08-10T14:53:19.316Z,43.70
2022-08-10T14:54:28.933Z,43.90
2022-08-10T14:55:58.309Z,44.20
2022-08-10T14:57:11.369Z,44.40
2022-08-10T14:58:21.290Z,44.70
2022-08-10T15:00:22.866Z,44.90
2022-08-10T15:00:55.776Z,45.00
2022-08-10T15:02:39.950Z,45.20
2022-08-10T15:03:59.311Z,45.10
2022-08-10T15:04:57.401Z,45.30
2022-08-10T15:06:07.230Z,45.60
2022-08-10T15:07:20.567Z,45.70
2022-08-10T15:08:26.874Z,45.80
2022-08-10T15:10:03.772Z,46.00
2022-08-10T15:11:05.669Z,46.10
2022-08-10T15:12:12.934Z,46.10
2022-08-10T15:13:33.580Z,46.30
2022-08-10T15:14:44.900Z,46.50
2022-08-10T15:16:11.432Z,46.50
2022-08-10T15:18:32.140Z,46.80
2022-08-10T15:20:02.142Z,46.80
2022-08-10T15:21:17.345Z,46.60
2022-08-10T15:22:37.237Z,46.80
2022-08-10T15:24:04.693Z,46.90
2022-08-10T15:25:19.265Z,47.10
2022-08-10T15:26:30.898Z,47.10
2022-08-10T15:27:54.247Z,47.00
2022-08-10T15:29:23.162Z,47.20
2022-08-10T15:30:33.324Z,47.20
2022-08-10T15:31:59.152Z,47.30
2022-08-10T15:33:57.729Z,47.40
2022-08-10T15:35:07.385Z,47.50
2022-08-10T15:36:34.119Z,47.50
2022-08-10T15:37:41.461Z,47.70
2022-08-10T15:38:46.491Z,47.90
2022-08-10T15:40:23.897Z,48.30
2022-08-10T15:41:58.366Z,48.30
2022-08-10T15:43:20.353Z,48.40
2022-08-10T15:44:39.312Z,48.20
2022-08-10T15:45:43.165Z,48.40
2022-08-10T15:46:54.532Z,48.50
2022-08-10T15:48:03.969Z,48.70
2022-08-10T15:49:17.061Z,48.90
2022-08-10T15:50:28.775Z,48.70
2022-08-10T15:51:54.051Z,48.90
2022-08-10T15:53:02.836Z,49.30